CheckWX is a tool to help pilots better visualize weather data.  It is not intended as a substitute for an official pre-flight weather briefing.

13:04:44 UTC

RPLB TAF
Subic Bay International Airport
Olongapo City, Philippines
TAF RPLB 181100Z 1812/1912 23004KT 9999 FEW020 SCT300 TX31/1906Z TN25/1822Z TEMPO 1812/1818 22010KT FEW018CB SCT020 BKN080

Aug-18@
12:00 UTC

Aug-18 @ 12:00 UTC

Aug-19@
12:00 UTC

Aug-19 @ 12:00 UTC

TAF RPLB 181100Z 1812/1912 23004KT 9999 FEW020 SCT300 TX31/1906Z TN25/1822Z
Wind
  • 230° at 4 KTS
Cloud Levels
  • Few at 2,000' AGL
  • Scattered at 30,000' AGL

Aug-18@
12:00 UTC

Aug-18 @ 12:00 UTC

Aug-18@
18:00 UTC

Aug-18 @ 18:00 UTC

TEMPO 1812/1818 22010KT FEW018CB SCT020 BKN080

Temporary

Temporary Changes expected for less than half the time period

Wind
  • 220° at 10 KTS
Cloud Levels
  • Few at 1,800' AGL
  • Scattered at 2,000' AGL
  • Broken at 8,000' AGL